Terminal Aerodrome Forecast
Issued by NWS Huntsville, AL

Home | Current Version | Previous Version | Text Only | Print | Product List | Glossary On
Versions: 1 2 3 4 5 6 7 8 9 10 11 12 13 14 15
000
FTUS44 KHUN 172320
TAFHSV
TAF
KHSV 172320Z 1800/1824 13005KT 6SM BR BKN015 OVC020
     FM180300 12003KT 4SM HZ BR OVC007
     FM180600 VRB02KT 1SM BR OVC004
     FM180900 00000KT 1/2SM FG OVC003
     FM181400 11003KT 4SM BR OVC010=

USA.gov is the U.S. government's official web portal to all federal, state and local government web resources and services.